createdAt,value
2019-02-05T00:01:16.876Z,13.30
2019-02-05T00:02:52.376Z,13.55
2019-02-05T00:04:30.442Z,13.20
2019-02-05T00:06:06.644Z,13.40
2019-02-05T00:07:42.593Z,13.25
2019-02-05T00:09:37.427Z,13.93
2019-02-05T00:11:39.167Z,13.20
2019-02-05T00:13:15.307Z,14.13
2019-02-05T00:14:57.317Z,14.40
2019-02-05T00:16:33.063Z,14.63
2019-02-05T00:18:14.230Z,13.95
2019-02-05T00:19:58.635Z,13.28
2019-02-05T00:21:34.975Z,13.95
2019-02-05T00:23:10.931Z,11.75
2019-02-05T00:24:46.682Z,12.90
2019-02-05T00:26:22.344Z,12.45
2019-02-05T00:27:58.304Z,12.78
2019-02-05T00:29:34.123Z,12.65
2019-02-05T00:31:09.984Z,12.90
2019-02-05T00:32:45.908Z,12.47
2019-02-05T00:34:21.184Z,13.30
2019-02-05T00:35:56.685Z,13.08
2019-02-05T00:37:32.169Z,12.90
2019-02-05T00:39:10.060Z,13.60
2019-02-05T00:40:45.379Z,12.88
2019-02-05T00:42:20.789Z,12.90
2019-02-05T00:43:56.387Z,14.25
2019-02-05T00:45:34.851Z,14.65
2019-02-05T00:47:10.117Z,13.53
2019-02-05T00:48:45.348Z,14.55
2019-02-05T00:50:21.338Z,14.35
2019-02-05T00:51:56.970Z,14.13
2019-02-05T00:53:32.684Z,13.60
2019-02-05T00:55:10.507Z,12.80
2019-02-05T00:56:45.716Z,13.72
2019-02-05T00:58:21.085Z,13.40
2019-02-05T00:59:56.384Z,12.47
2019-02-05T01:01:31.982Z,13.20
2019-02-05T01:03:08.129Z,12.55
2019-02-05T01:04:43.982Z,12.13
2019-02-05T01:06:19.711Z,13.00
2019-02-05T01:07:55.760Z,12.85
2019-02-05T01:09:31.351Z,14.07
2019-02-05T01:11:06.926Z,11.73
2019-02-05T01:12:42.447Z,12.82
2019-02-05T01:14:18.608Z,11.93
2019-02-05T01:15:54.624Z,12.55
2019-02-05T01:17:30.649Z,12.05
2019-02-05T01:19:06.738Z,12.60
2019-02-05T01:20:42.342Z,12.05
2019-02-05T01:22:19.884Z,12.35
2019-02-05T01:23:55.600Z,13.08
2019-02-05T01:25:33.419Z,12.82
2019-02-05T01:27:08.665Z,13.38
2019-02-05T01:28:44.298Z,12.90
2019-02-05T01:30:24.101Z,12.00
2019-02-05T01:31:59.354Z,12.55
2019-02-05T01:33:35.243Z,11.93
2019-02-05T01:35:10.961Z,11.53
2019-02-05T01:36:46.411Z,11.83
2019-02-05T01:38:22.070Z,12.28
2019-02-05T01:39:57.408Z,12.37
2019-02-05T01:41:32.884Z,12.33
2019-02-05T01:43:08.711Z,11.90
2019-02-05T01:44:44.866Z,12.85
2019-02-05T01:46:20.120Z,11.75
2019-02-05T01:47:56.144Z,12.10
2019-02-05T01:49:31.454Z,11.48
2019-02-05T01:51:06.821Z,13.18
2019-02-05T01:52:42.272Z,14.30
2019-02-05T01:54:18.022Z,13.75
2019-02-05T01:55:53.550Z,14.55
2019-02-05T01:57:29.487Z,14.23
2019-02-05T01:59:05.716Z,14.38
2019-02-05T02:00:41.312Z,13.80
2019-02-05T02:02:16.727Z,13.25
2019-02-05T02:03:52.649Z,13.00
2019-02-05T02:05:27.919Z,13.15
2019-02-05T02:07:04.399Z,13.48
2019-02-05T02:08:39.760Z,11.83
2019-02-05T02:10:19.213Z,13.30
2019-02-05T02:11:55.160Z,12.15
2019-02-05T02:13:30.614Z,11.93
2019-02-05T02:15:07.522Z,11.93
2019-02-05T02:16:42.591Z,11.73
2019-02-05T02:18:18.216Z,11.65
2019-02-05T02:19:53.205Z,11.60
2019-02-05T02:21:28.366Z,12.18
2019-02-05T02:23:03.815Z,10.75
2019-02-05T02:24:39.366Z,10.63
2019-02-05T02:26:14.399Z,11.70
2019-02-05T02:27:51.007Z,11.22
2019-02-05T02:29:25.918Z,11.88
2019-02-05T02:31:01.090Z,12.65
2019-02-05T02:32:35.995Z,12.33
2019-02-05T02:34:11.129Z,12.70
2019-02-05T02:35:46.063Z,12.07
2019-02-05T02:37:21.634Z,11.65
2019-02-05T02:38:56.577Z,12.58
2019-02-05T02:40:31.432Z,11.45
2019-02-05T02:42:06.609Z,11.53
2019-02-05T02:43:41.787Z,11.55
2019-02-05T02:45:16.905Z,11.85
2019-02-05T02:46:52.037Z,12.37
2019-02-05T02:48:28.158Z,12.10
2019-02-05T02:50:02.996Z,12.45
2019-02-05T02:51:38.289Z,13.00
2019-02-05T02:53:13.429Z,11.73
2019-02-05T02:54:48.301Z,12.88
2019-02-05T02:56:23.162Z,13.62
2019-02-05T02:57:58.039Z,11.73
2019-02-05T02:59:33.111Z,11.97
2019-02-05T03:01:08.716Z,12.50
2019-02-05T03:02:44.090Z,13.43
2019-02-05T03:04:19.068Z,12.75
2019-02-05T03:05:54.083Z,13.38
2019-02-05T03:07:28.943Z,13.40
2019-02-05T03:09:07.464Z,12.80
2019-02-05T03:10:42.415Z,12.35
2019-02-05T03:12:17.292Z,13.08
2019-02-05T03:13:52.696Z,12.45
2019-02-05T03:15:27.796Z,13.85
2019-02-05T03:17:02.939Z,12.28
2019-02-05T03:18:37.860Z,12.10
2019-02-05T03:20:13.970Z,12.10
2019-02-05T03:21:49.258Z,11.83
2019-02-05T03:23:24.522Z,11.75
2019-02-05T03:24:59.756Z,11.70
2019-02-05T03:26:34.939Z,12.63
2019-02-05T03:28:09.965Z,12.60
2019-02-05T03:29:45.073Z,13.65
2019-02-05T03:31:20.349Z,11.70
2019-02-05T03:32:56.049Z,11.80
2019-02-05T03:34:31.045Z,13.10
2019-02-05T03:36:06.664Z,11.88
2019-02-05T03:37:41.787Z,12.47
2019-02-05T03:39:16.951Z,12.45
2019-02-05T03:41:07.638Z,11.68
2019-02-05T03:42:42.709Z,11.25
2019-02-05T03:44:17.703Z,11.00
2019-02-05T03:45:53.473Z,11.40
2019-02-05T03:47:29.218Z,12.43
2019-02-05T03:49:04.491Z,11.70
2019-02-05T03:50:46.212Z,12.58
2019-02-05T03:52:29.366Z,11.22
2019-02-05T03:54:20.118Z,11.57
2019-02-05T03:57:32.018Z,11.00
2019-02-05T03:59:23.744Z,11.20
2019-02-05T04:01:53.635Z,10.03
2019-02-05T04:04:15.498Z,10.32
2019-02-05T04:06:27.701Z,10.50
2019-02-05T04:08:50.148Z,10.48
2019-02-05T04:11:18.568Z,12.07
2019-02-05T04:13:30.669Z,10.13
2019-02-05T04:15:36.751Z,11.40
2019-02-05T04:17:46.003Z,10.20
2019-02-05T04:20:02.447Z,9.78
2019-02-05T04:21:59.165Z,9.28
2019-02-05T04:24:31.359Z,10.00
2019-02-05T04:26:51.112Z,9.90
2019-02-05T04:29:05.622Z,9.18
2019-02-05T04:31:04.788Z,9.43
2019-02-05T04:33:13.750Z,9.23
2019-02-05T04:35:34.868Z,10.63
2019-02-05T04:37:20.283Z,8.73
2019-02-05T04:39:30.560Z,10.00
2019-02-05T04:41:46.628Z,9.20
2019-02-05T04:43:34.826Z,9.23
2019-02-05T04:45:59.721Z,9.08
2019-02-05T04:48:10.475Z,9.13
2019-02-05T04:49:56.760Z,9.30
2019-02-05T04:51:50.619Z,9.93
2019-02-05T04:54:15.471Z,9.65
2019-02-05T04:56:25.247Z,10.45
2019-02-05T04:58:35.992Z,9.83
2019-02-05T05:00:32.479Z,9.00
2019-02-05T05:02:30.431Z,9.38
2019-02-05T05:04:26.605Z,9.90
2019-02-05T05:06:13.386Z,9.90
2019-02-05T05:07:59.237Z,9.55
2019-02-05T05:09:56.295Z,9.73
2019-02-05T05:11:31.375Z,10.08
2019-02-05T05:13:06.338Z,8.70
2019-02-05T05:14:40.812Z,9.50
2019-02-05T05:16:15.674Z,9.53
2019-02-05T05:17:50.430Z,9.23
2019-02-05T05:19:25.375Z,9.00
2019-02-05T05:20:59.871Z,9.60
2019-02-05T05:22:34.970Z,9.18
2019-02-05T05:24:10.037Z,8.68
2019-02-05T05:25:45.185Z,9.50
2019-02-05T05:27:21.272Z,9.48
2019-02-05T05:28:56.482Z,9.35
2019-02-05T05:30:31.340Z,9.60
2019-02-05T05:32:06.007Z,8.85
2019-02-05T05:33:40.879Z,9.13
2019-02-05T05:35:15.762Z,8.13
2019-02-05T05:36:50.223Z,8.70
2019-02-05T05:38:25.210Z,9.38
2019-02-05T05:40:00.045Z,8.63
2019-02-05T05:41:34.837Z,9.65
2019-02-05T05:43:09.310Z,8.53
2019-02-05T05:44:44.508Z,8.05
2019-02-05T05:46:19.044Z,8.03
2019-02-05T05:47:53.526Z,7.22
2019-02-05T05:49:28.018Z,8.10
2019-02-05T05:51:02.488Z,7.80
2019-02-05T05:52:37.328Z,7.97
2019-02-05T05:54:12.675Z,7.42
2019-02-05T05:55:47.913Z,7.78
2019-02-05T05:57:22.995Z,7.22
2019-02-05T05:58:58.363Z,7.47
2019-02-05T06:00:33.486Z,7.72
2019-02-05T06:02:08.651Z,6.85
2019-02-05T06:03:43.495Z,7.37
2019-02-05T06:05:20.488Z,7.67
2019-02-05T06:06:55.872Z,9.05
2019-02-05T06:08:31.184Z,7.05
2019-02-05T06:10:07.937Z,6.25
2019-02-05T06:11:42.842Z,7.67
2019-02-05T06:13:17.920Z,6.83
2019-02-05T06:14:52.738Z,6.08
2019-02-05T06:16:27.928Z,5.22
2019-02-05T06:18:02.865Z,5.55
2019-02-05T06:19:39.809Z,6.65
2019-02-05T06:21:14.625Z,7.47
2019-02-05T06:22:49.531Z,6.42
2019-02-05T06:24:24.532Z,6.37
2019-02-05T06:25:59.375Z,6.20
2019-02-05T06:27:34.453Z,5.70
2019-02-05T06:29:09.388Z,5.92
2019-02-05T06:30:44.265Z,5.97
2019-02-05T06:32:19.766Z,5.55
2019-02-05T06:33:54.864Z,6.70
2019-02-05T06:35:29.824Z,5.67
2019-02-05T06:37:04.773Z,5.83
2019-02-05T06:38:39.950Z,5.83
2019-02-05T06:40:18.497Z,6.05
2019-02-05T06:41:53.399Z,6.72
2019-02-05T06:43:28.781Z,6.78
2019-02-05T06:45:04.951Z,6.55
2019-02-05T06:46:39.788Z,6.92
2019-02-05T06:48:14.711Z,5.62
2019-02-05T06:49:49.878Z,6.30
2019-02-05T06:51:24.685Z,6.22
2019-02-05T06:52:59.591Z,6.00
2019-02-05T06:54:34.738Z,5.47
2019-02-05T06:56:09.864Z,6.17
2019-02-05T06:57:45.448Z,6.12
2019-02-05T06:59:20.287Z,6.87
2019-02-05T07:00:55.202Z,5.72
2019-02-05T07:02:30.345Z,6.08
2019-02-05T07:04:06.164Z,6.37
2019-02-05T07:05:40.977Z,6.50
2019-02-05T07:07:16.121Z,6.28
2019-02-05T07:08:50.984Z,7.33
2019-02-05T07:10:26.767Z,7.90
2019-02-05T07:12:02.190Z,10.78
2019-02-05T07:13:37.442Z,10.95
2019-02-05T07:15:13.232Z,11.22
2019-02-05T07:16:48.335Z,8.78
2019-02-05T07:18:23.233Z,9.28
2019-02-05T07:19:58.347Z,9.20
2019-02-05T07:21:33.191Z,10.00
2019-02-05T07:23:08.544Z,9.20
2019-02-05T07:24:43.360Z,8.70
2019-02-05T07:26:18.254Z,10.78
2019-02-05T07:27:53.371Z,8.43
2019-02-05T07:29:28.163Z,10.38
2019-02-05T07:31:04.673Z,10.28
2019-02-05T07:32:39.752Z,10.20
2019-02-05T07:34:14.861Z,11.10
2019-02-05T07:35:49.391Z,13.00
2019-02-05T07:37:24.170Z,11.85
2019-02-05T07:38:59.308Z,11.55
2019-02-05T07:40:34.749Z,13.65
2019-02-05T07:42:09.831Z,12.10
2019-02-05T07:43:44.641Z,11.90
2019-02-05T07:45:20.290Z,10.55
2019-02-05T07:46:55.205Z,10.60
2019-02-05T07:48:30.573Z,10.10
2019-02-05T07:50:08.962Z,9.95
2019-02-05T07:51:43.899Z,10.98
2019-02-05T07:53:19.565Z,10.15
2019-02-05T07:54:53.976Z,10.35
2019-02-05T07:56:28.574Z,10.40
2019-02-05T07:58:03.480Z,9.60
2019-02-05T07:59:38.549Z,9.88
2019-02-05T08:01:13.234Z,10.68
2019-02-05T08:02:48.161Z,11.65
2019-02-05T08:04:22.978Z,10.65
2019-02-05T08:05:58.303Z,10.75
2019-02-05T08:07:33.126Z,11.38
2019-02-05T08:09:10.413Z,11.45
2019-02-05T08:10:46.081Z,10.38
2019-02-05T08:12:22.656Z,12.40
2019-02-05T08:13:57.435Z,12.00
2019-02-05T08:15:33.839Z,13.80
2019-02-05T08:17:27.558Z,13.98
2019-02-05T08:18:50.471Z,14.13
2019-02-05T08:20:25.517Z,14.38
2019-02-05T08:22:00.428Z,14.10
2019-02-05T08:23:35.307Z,14.43
2019-02-05T08:25:12.453Z,14.33
2019-02-05T08:26:47.286Z,13.65
2019-02-05T08:28:22.107Z,13.80
2019-02-05T08:29:56.562Z,14.78
2019-02-05T08:31:31.392Z,13.98
2019-02-05T08:33:06.437Z,13.05
2019-02-05T08:34:43.489Z,13.72
2019-02-05T08:36:18.534Z,14.35
2019-02-05T08:37:53.403Z,13.08
2019-02-05T08:39:28.687Z,13.80
2019-02-05T08:41:04.029Z,14.15
2019-02-05T08:42:38.816Z,13.72
2019-02-05T08:44:13.239Z,14.63
2019-02-05T08:45:56.339Z,14.20
2019-02-05T08:47:24.165Z,14.43
2019-02-05T08:48:59.005Z,15.38
2019-02-05T08:50:33.525Z,13.25
2019-02-05T08:52:08.255Z,14.23
2019-02-05T08:53:43.117Z,14.40
2019-02-05T08:55:18.758Z,14.95
2019-02-05T08:56:53.201Z,15.50
2019-02-05T08:58:31.047Z,14.60
2019-02-05T09:00:05.345Z,16.27
2019-02-05T09:01:40.036Z,15.58
2019-02-05T09:03:14.799Z,16.02
2019-02-05T09:12:52.942Z,14.38
2019-02-05T09:14:48.555Z,14.85
2019-02-05T09:16:56.635Z,14.13
2019-02-05T09:20:46.746Z,14.83
2019-02-05T09:22:24.544Z,14.45
2019-02-05T09:24:03.104Z,14.33
2019-02-05T09:26:02.016Z,14.15
2019-02-05T09:27:27.867Z,16.05
2019-02-05T09:29:33.156Z,14.47
2019-02-05T09:31:19.786Z,14.30
2019-02-05T09:33:02.777Z,12.23
2019-02-05T09:34:56.808Z,13.45
2019-02-05T09:36:38.746Z,13.38
2019-02-05T09:38:13.775Z,14.83
2019-02-05T09:40:08.319Z,13.88
2019-02-05T09:42:02.247Z,14.40
2019-02-05T09:43:37.350Z,12.95
2019-02-05T09:45:15.853Z,13.50
2019-02-05T09:46:50.672Z,13.50
2019-02-05T09:48:25.753Z,14.40
2019-02-05T09:50:00.832Z,14.33
2019-02-05T09:51:35.923Z,14.07
2019-02-05T09:53:10.689Z,14.30
2019-02-05T09:54:45.374Z,13.72
2019-02-05T09:56:20.268Z,13.38
2019-02-05T09:57:55.302Z,13.50
2019-02-05T09:59:29.818Z,13.65
2019-02-05T10:01:05.659Z,12.60
2019-02-05T10:02:40.138Z,14.75
2019-02-05T10:04:14.646Z,13.50
2019-02-05T10:05:49.186Z,11.93
2019-02-05T10:07:23.670Z,13.18
2019-02-05T10:08:58.699Z,13.28
2019-02-05T10:10:33.526Z,13.55
2019-02-05T10:12:08.522Z,13.78
2019-02-05T10:13:43.120Z,12.85
2019-02-05T10:15:20.078Z,13.68
2019-02-05T10:16:54.537Z,13.65
2019-02-05T10:18:29.291Z,12.88
2019-02-05T10:20:04.475Z,13.60
2019-02-05T10:21:39.108Z,13.68
2019-02-05T10:23:13.666Z,13.75
2019-02-05T10:24:49.913Z,13.30
2019-02-05T10:26:24.871Z,12.13
2019-02-05T10:27:59.598Z,13.50
2019-02-05T10:29:34.154Z,12.78
2019-02-05T10:31:09.033Z,13.48
2019-02-05T10:32:43.601Z,12.85
2019-02-05T10:34:18.483Z,13.38
2019-02-05T10:35:53.025Z,12.78
2019-02-05T10:37:27.519Z,14.13
2019-02-05T10:39:02.389Z,14.30
2019-02-05T10:40:36.991Z,14.25
2019-02-05T10:42:11.735Z,14.00
2019-02-05T10:43:46.227Z,13.45
2019-02-05T10:45:21.418Z,14.07
2019-02-05T10:46:55.874Z,13.80
2019-02-05T10:48:30.754Z,14.55
2019-02-05T10:50:08.648Z,15.00
2019-02-05T10:51:43.720Z,14.90
2019-02-05T10:53:18.883Z,16.23
2019-02-05T10:54:54.338Z,15.23
2019-02-05T10:56:29.330Z,13.88
2019-02-05T10:58:04.974Z,13.93
2019-02-05T10:59:39.787Z,14.40
2019-02-05T11:01:14.671Z,14.18
2019-02-05T11:02:49.978Z,14.15
2019-02-05T11:04:24.843Z,13.78
2019-02-05T11:05:59.635Z,14.25
2019-02-05T11:07:34.453Z,14.60
2019-02-05T11:09:11.570Z,14.73
2019-02-05T11:10:46.475Z,14.65
2019-02-05T11:12:21.432Z,14.25
2019-02-05T11:13:56.339Z,14.38
2019-02-05T11:15:33.201Z,15.20
2019-02-05T11:17:08.161Z,15.80
2019-02-05T11:18:43.110Z,15.13
2019-02-05T11:20:21.517Z,15.75
2019-02-05T11:21:56.588Z,15.53
2019-02-05T11:23:31.657Z,15.55
2019-02-05T11:25:07.557Z,15.95
2019-02-05T11:26:42.717Z,17.98
2019-02-05T11:28:17.800Z,16.12
2019-02-05T11:29:52.586Z,16.50
2019-02-05T11:31:27.498Z,15.98
2019-02-05T11:33:02.671Z,16.70
2019-02-05T11:34:37.919Z,16.82
2019-02-05T11:36:13.210Z,16.65
2019-02-05T11:37:48.199Z,16.23
2019-02-05T11:39:23.070Z,15.78
2019-02-05T11:40:58.229Z,16.57
2019-02-05T11:42:33.018Z,16.93
2019-02-05T11:44:08.095Z,15.28
2019-02-05T11:45:42.979Z,16.42
2019-02-05T11:47:18.763Z,15.75
2019-02-05T11:48:54.108Z,15.53
2019-02-05T11:50:28.995Z,16.27
2019-02-05T11:52:04.085Z,14.78
2019-02-05T11:53:41.317Z,14.75
2019-02-05T11:55:18.695Z,15.75
2019-02-05T11:56:53.515Z,16.00
2019-02-05T11:58:28.327Z,17.10
2019-02-05T12:00:03.870Z,15.13
2019-02-05T12:01:40.626Z,15.90
2019-02-05T12:03:16.682Z,16.02
2019-02-05T12:04:52.126Z,15.90
2019-02-05T12:06:28.010Z,15.83
2019-02-05T12:08:03.389Z,16.80
2019-02-05T12:09:38.682Z,16.07
2019-02-05T12:11:13.557Z,17.05
2019-02-05T12:12:48.628Z,15.90
2019-02-05T12:14:23.662Z,15.58
2019-02-05T12:15:58.897Z,16.67
2019-02-05T12:17:33.678Z,15.70
2019-02-05T12:19:08.733Z,16.25
2019-02-05T12:20:43.589Z,16.40
2019-02-05T12:22:18.760Z,16.23
2019-02-05T12:23:53.743Z,16.17
2019-02-05T12:25:29.537Z,15.60
2019-02-05T12:27:05.450Z,17.67
2019-02-05T12:28:40.608Z,16.52
2019-02-05T12:30:26.694Z,15.20
2019-02-05T12:32:01.739Z,15.75
2019-02-05T12:33:36.535Z,15.50
2019-02-05T12:35:12.119Z,16.35
2019-02-05T12:36:47.568Z,15.60
2019-02-05T12:38:22.717Z,16.82
2019-02-05T12:39:57.500Z,16.75
2019-02-05T12:41:32.622Z,17.55
2019-02-05T12:43:07.969Z,17.62
2019-02-05T12:44:42.749Z,17.52
2019-02-05T12:46:17.522Z,17.57
2019-02-05T12:47:52.519Z,17.55
2019-02-05T12:49:27.582Z,19.20
2019-02-05T12:51:03.074Z,18.30
2019-02-05T12:52:37.854Z,19.52
2019-02-05T12:54:12.864Z,18.95
2019-02-05T12:55:47.741Z,17.10
2019-02-05T12:57:22.789Z,16.70
2019-02-05T12:58:57.835Z,17.95
2019-02-05T13:00:42.534Z,17.90
2019-02-05T13:02:17.405Z,16.48
2019-02-05T13:03:52.449Z,17.40
2019-02-05T13:05:27.555Z,17.57
2019-02-05T13:07:02.417Z,18.55
2019-02-05T13:08:37.721Z,17.27
2019-02-05T13:10:15.136Z,17.57
2019-02-05T13:11:50.182Z,19.23
2019-02-05T13:13:25.245Z,17.70
2019-02-05T13:15:00.038Z,17.25
2019-02-05T13:16:35.138Z,17.90
2019-02-05T13:18:10.194Z,17.12
2019-02-05T13:19:45.707Z,16.32
2019-02-05T13:21:20.495Z,16.42
2019-02-05T13:22:55.310Z,15.43
2019-02-05T13:24:30.082Z,16.40
2019-02-05T13:26:05.778Z,18.23
2019-02-05T13:27:40.569Z,15.53
2019-02-05T13:29:15.362Z,15.95
2019-02-05T13:30:50.395Z,15.90
2019-02-05T13:32:25.255Z,17.35
2019-02-05T13:34:00.138Z,15.43
2019-02-05T13:35:35.325Z,15.38
2019-02-05T13:37:10.116Z,15.15
2019-02-05T13:38:44.900Z,15.35
2019-02-05T13:40:23.020Z,15.38
2019-02-05T13:41:57.852Z,15.95
2019-02-05T13:43:32.667Z,15.00
2019-02-05T13:45:08.764Z,15.43
2019-02-05T13:46:43.681Z,15.60
2019-02-05T13:48:18.470Z,15.38
2019-02-05T13:49:53.342Z,15.72
2019-02-05T13:51:28.116Z,15.63
2019-02-05T13:53:03.380Z,16.42
2019-02-05T13:54:38.488Z,15.78
2019-02-05T13:56:13.930Z,15.18
2019-02-05T13:57:49.043Z,15.45
2019-02-05T13:59:23.873Z,15.85
2019-02-05T14:00:58.812Z,16.40
2019-02-05T14:02:33.601Z,16.10
2019-02-05T14:04:08.646Z,16.32
2019-02-05T14:05:44.015Z,15.18
2019-02-05T14:07:19.051Z,15.65
2019-02-05T14:08:53.849Z,16.32
2019-02-05T14:10:31.679Z,17.87
2019-02-05T14:12:06.723Z,17.23
2019-02-05T14:13:41.965Z,16.17
2019-02-05T14:15:19.465Z,16.85
2019-02-05T14:16:54.645Z,16.42
2019-02-05T14:18:29.770Z,15.72
2019-02-05T14:20:07.077Z,17.60
2019-02-05T14:21:41.858Z,15.83
2019-02-05T14:23:17.379Z,16.77
2019-02-05T14:24:52.175Z,17.40
2019-02-05T14:26:27.674Z,16.82
2019-02-05T14:28:02.599Z,17.90
2019-02-05T14:29:37.384Z,16.45
2019-02-05T14:31:12.248Z,16.52
2019-02-05T14:32:47.055Z,17.40
2019-02-05T14:34:21.839Z,16.75
2019-02-05T14:35:56.690Z,17.62
2019-02-05T14:37:31.472Z,16.82
2019-02-05T14:39:10.359Z,16.90
2019-02-05T14:40:46.017Z,16.20
2019-02-05T14:42:21.040Z,16.60
2019-02-05T14:43:55.919Z,17.52
2019-02-05T14:45:30.714Z,17.92
2019-02-05T14:47:06.519Z,16.35
2019-02-05T14:48:41.374Z,17.67
2019-02-05T14:50:21.413Z,17.12
2019-02-05T14:51:57.849Z,17.15
2019-02-05T14:53:32.875Z,16.95
2019-02-05T14:55:08.207Z,17.35
2019-02-05T14:56:43.001Z,17.48
2019-02-05T14:58:18.744Z,17.85
2019-02-05T14:59:53.814Z,18.15
2019-02-05T15:01:28.927Z,19.75
2019-02-05T15:03:07.042Z,18.90
2019-02-05T15:04:41.860Z,18.00
2019-02-05T15:06:17.176Z,19.35
2019-02-05T15:07:52.460Z,18.42
2019-02-05T15:09:27.752Z,19.37
2019-02-05T15:11:02.766Z,18.45
2019-02-05T15:12:37.656Z,18.55
2019-02-05T15:14:12.684Z,19.45
2019-02-05T15:15:48.033Z,18.50
2019-02-05T15:17:23.144Z,17.73
2019-02-05T15:18:58.685Z,19.05
2019-02-05T15:20:40.842Z,18.60
2019-02-05T15:22:15.869Z,18.07
2019-02-05T15:23:51.051Z,19.90
2019-02-05T15:25:26.381Z,19.77
2019-02-05T15:27:01.107Z,19.10
2019-02-05T15:28:36.308Z,18.77
2019-02-05T15:30:17.446Z,20.80
2019-02-05T15:31:54.754Z,19.37
2019-02-05T15:33:51.962Z,21.05
2019-02-05T15:35:27.335Z,21.07
2019-02-05T15:37:02.129Z,21.57
2019-02-05T15:38:37.312Z,21.23
2019-02-05T15:40:13.764Z,19.92
2019-02-05T15:41:48.816Z,19.42
2019-02-05T15:43:24.165Z,20.68
2019-02-05T15:44:58.992Z,20.32
2019-02-05T15:46:34.510Z,20.15
2019-02-05T15:48:09.635Z,20.10
2019-02-05T15:49:44.419Z,19.32
2019-02-05T15:51:19.418Z,18.42
2019-02-05T15:52:53.860Z,19.80
2019-02-05T15:54:28.574Z,20.48
2019-02-05T15:56:03.097Z,20.77
2019-02-05T15:57:38.105Z,21.12
2019-02-05T15:59:12.538Z,22.30
2019-02-05T16:00:46.922Z,22.40
2019-02-05T16:02:21.634Z,20.75
2019-02-05T16:03:56.074Z,20.10
2019-02-05T16:05:30.503Z,22.67
2019-02-05T16:07:05.262Z,21.97
2019-02-05T16:08:39.832Z,22.55
2019-02-05T16:10:15.759Z,21.52
2019-02-05T16:11:50.459Z,22.95
2019-02-05T16:13:24.986Z,21.15
2019-02-05T16:14:59.387Z,21.10
2019-02-05T16:16:33.895Z,20.12
2019-02-05T16:18:08.915Z,23.67
2019-02-05T16:19:43.298Z,21.15
2019-02-05T16:21:17.934Z,21.23
2019-02-05T16:22:52.810Z,21.37
2019-02-05T16:24:27.378Z,22.10
2019-02-05T16:26:02.249Z,22.30
2019-02-05T16:27:36.687Z,22.22
2019-02-05T16:29:11.366Z,21.48
2019-02-05T16:30:45.752Z,21.45
2019-02-05T16:32:20.193Z,23.67
2019-02-05T16:33:55.038Z,23.02
2019-02-05T16:35:29.474Z,23.20
2019-02-05T16:37:04.153Z,22.17
2019-02-05T16:38:38.613Z,22.48
2019-02-05T16:40:21.441Z,22.42
2019-02-05T16:41:56.483Z,20.72
2019-02-05T16:43:30.964Z,21.33
2019-02-05T16:45:07.938Z,21.95
2019-02-05T16:46:42.942Z,22.07
2019-02-05T16:48:17.909Z,21.15
2019-02-05T16:49:52.609Z,22.60
2019-02-05T16:51:27.078Z,22.85
2019-02-05T16:53:01.684Z,22.98
2019-02-05T16:54:36.744Z,23.52
2019-02-05T16:56:11.445Z,22.82
2019-02-05T16:57:46.494Z,23.98
2019-02-05T16:59:21.197Z,24.45
2019-02-05T17:00:55.661Z,22.80
2019-02-05T17:02:30.279Z,24.05
2019-02-05T17:04:05.275Z,22.60
2019-02-05T17:05:40.425Z,22.85
2019-02-05T17:07:15.175Z,22.40
2019-02-05T17:08:49.805Z,22.70
2019-02-05T17:10:24.530Z,22.77
2019-02-05T17:11:59.398Z,23.05
2019-02-05T17:13:34.114Z,22.50
2019-02-05T17:15:10.586Z,23.45
2019-02-05T17:16:45.523Z,22.85
2019-02-05T17:18:23.906Z,23.42
2019-02-05T17:19:56.001Z,22.67
2019-02-05T17:21:30.752Z,23.60
2019-02-05T17:23:05.745Z,24.75
2019-02-05T17:24:40.665Z,23.55
2019-02-05T17:26:15.182Z,22.62
2019-02-05T17:27:50.602Z,22.87
2019-02-05T17:29:25.298Z,25.32
2019-02-05T17:31:00.407Z,25.68
2019-02-05T17:32:40.413Z,24.67
2019-02-05T17:34:11.703Z,23.70
2019-02-05T17:35:46.600Z,23.80
2019-02-05T17:37:21.053Z,22.98
2019-02-05T17:38:55.657Z,25.75
2019-02-05T17:40:30.325Z,23.77
2019-02-05T17:42:05.146Z,24.98
2019-02-05T17:43:39.633Z,24.10
2019-02-05T17:45:17.211Z,24.20
2019-02-05T17:46:51.882Z,23.85
2019-02-05T17:48:26.597Z,24.87
2019-02-05T17:50:01.608Z,25.12
2019-02-05T17:51:36.297Z,27.27
2019-02-05T17:53:10.796Z,25.70
2019-02-05T17:54:45.374Z,25.37
2019-02-05T17:56:19.822Z,25.88
2019-02-05T17:57:54.688Z,24.95
2019-02-05T17:59:29.456Z,24.35
2019-02-05T18:01:10.902Z,25.00
2019-02-05T18:02:51.688Z,25.12
2019-02-05T18:04:21.689Z,25.25
2019-02-05T18:05:56.540Z,25.30
2019-02-05T18:07:31.862Z,26.50
2019-02-05T18:09:08.598Z,25.10
2019-02-05T18:10:44.024Z,26.40
2019-02-05T18:12:18.709Z,24.47
2019-02-05T18:13:53.990Z,26.10
2019-02-05T18:15:30.839Z,25.75
2019-02-05T18:17:05.604Z,27.25
2019-02-05T18:18:40.114Z,23.90
2019-02-05T18:20:15.293Z,25.95
2019-02-05T18:21:50.022Z,24.52
2019-02-05T18:23:25.010Z,25.68
2019-02-05T18:24:59.408Z,24.00
2019-02-05T18:26:34.240Z,24.45
2019-02-05T18:28:08.689Z,25.00
2019-02-05T18:29:43.047Z,26.42
2019-02-05T18:31:17.509Z,26.68
2019-02-05T18:33:02.795Z,26.73
2019-02-05T18:34:28.473Z,29.82
2019-02-05T18:36:03.094Z,30.08
2019-02-05T18:37:37.788Z,28.75
2019-02-05T18:39:12.605Z,30.62
2019-02-05T18:40:47.230Z,28.32
2019-02-05T18:42:21.767Z,27.27
2019-02-05T18:43:56.286Z,28.00
2019-02-05T18:45:31.040Z,26.65
2019-02-05T18:47:05.731Z,27.45
2019-02-05T18:48:40.189Z,28.27
2019-02-05T18:50:20.657Z,26.55
2019-02-05T18:51:55.275Z,28.60
2019-02-05T18:53:31.065Z,28.77
2019-02-05T18:55:06.754Z,26.82
2019-02-05T18:56:41.571Z,27.25
2019-02-05T18:58:16.580Z,25.97
2019-02-05T18:59:51.810Z,28.07
2019-02-05T19:01:26.489Z,27.13
2019-02-05T19:03:01.104Z,28.83
2019-02-05T19:04:35.854Z,27.60
2019-02-05T19:06:10.774Z,27.65
2019-02-05T19:07:45.212Z,29.00
2019-02-05T19:09:20.268Z,29.15
2019-02-05T19:10:55.021Z,27.82
2019-02-05T19:12:30.007Z,28.35
2019-02-05T19:14:04.699Z,27.37
2019-02-05T19:15:39.875Z,27.77
2019-02-05T19:17:14.429Z,27.90
2019-02-05T19:18:49.054Z,27.42
2019-02-05T19:20:25.753Z,28.50
2019-02-05T19:22:00.205Z,27.80
2019-02-05T19:23:34.571Z,29.02
2019-02-05T19:25:19.539Z,26.57
2019-02-05T19:26:54.383Z,26.65
2019-02-05T19:28:31.243Z,28.85
2019-02-05T19:30:07.645Z,28.57
2019-02-05T19:31:42.445Z,28.52
2019-02-05T19:33:26.742Z,29.02
2019-02-05T19:34:53.499Z,26.50
2019-02-05T19:36:27.933Z,27.45
2019-02-05T19:38:02.493Z,26.97
2019-02-05T19:39:36.986Z,27.77
2019-02-05T19:41:11.390Z,27.85
2019-02-05T19:42:45.758Z,31.97
2019-02-05T19:44:20.452Z,33.30
2019-02-05T19:46:10.245Z,34.65
2019-02-05T19:47:44.826Z,38.45
2019-02-05T19:49:22.753Z,41.75
2019-02-05T19:50:58.024Z,40.83
2019-02-05T19:52:32.492Z,36.75
2019-02-05T19:54:26.300Z,31.90
2019-02-05T19:56:24.146Z,35.90
2019-02-05T19:57:58.641Z,33.50
2019-02-05T19:59:33.134Z,36.40
2019-02-05T20:01:08.154Z,35.90
2019-02-05T20:02:42.553Z,31.17
2019-02-05T20:04:17.047Z,32.58
2019-02-05T20:05:51.805Z,33.05
2019-02-05T20:07:26.322Z,34.85
2019-02-05T20:09:00.804Z,34.73
2019-02-05T20:10:35.698Z,35.43
2019-02-05T20:12:10.403Z,29.90
2019-02-05T20:13:44.902Z,29.57
2019-02-05T20:15:19.886Z,29.77
2019-02-05T20:16:54.827Z,29.90
2019-02-05T20:18:29.818Z,30.40
2019-02-05T20:20:05.939Z,29.25
2019-02-05T20:21:40.826Z,28.70
2019-02-05T20:23:15.480Z,28.65
2019-02-05T20:24:50.103Z,29.67
2019-02-05T20:26:24.539Z,29.52
2019-02-05T20:27:59.236Z,27.42
2019-02-05T20:29:33.665Z,29.00
2019-02-05T20:31:08.411Z,28.40
2019-02-05T20:32:42.765Z,27.90
2019-02-05T20:34:17.145Z,29.18
2019-02-05T20:35:51.942Z,29.70
2019-02-05T20:37:26.385Z,30.12
2019-02-05T20:39:00.836Z,30.45
2019-02-05T20:40:35.207Z,30.72
2019-02-05T20:42:09.915Z,30.68
2019-02-05T20:43:44.641Z,30.92
2019-02-05T20:45:19.461Z,32.95
2019-02-05T20:46:53.842Z,29.65
2019-02-05T20:48:29.853Z,29.75
2019-02-05T20:50:07.014Z,28.90
2019-02-05T20:51:41.468Z,30.20
2019-02-05T20:53:15.838Z,29.52
2019-02-05T20:54:50.350Z,28.65
2019-02-05T20:56:24.789Z,29.35
2019-02-05T20:57:59.679Z,29.42
2019-02-05T20:59:34.160Z,30.60
2019-02-05T21:01:08.669Z,29.48
2019-02-05T21:02:43.191Z,29.98
2019-02-05T21:04:17.566Z,28.87
2019-02-05T21:05:52.405Z,29.45
2019-02-05T21:07:27.035Z,28.87
2019-02-05T21:09:01.962Z,30.12
2019-02-05T21:10:36.387Z,29.12